sensor_id;sensor_type;location;lat;lon;timestamp;pressure;altitude;pressure_sealevel;temperature;humidity
10940;BME280;5522;42.696;23.494;2023-07-02T00:01:49;53815.63;;;-139.68;100.00
10940;BME280;5522;42.696;23.494;2023-07-02T00:04:16;53867.88;;;-139.68;100.00
10940;BME280;5522;42.696;23.494;2023-07-02T00:06:45;53831.69;;;-139.68;100.00
10940;BME280;5522;42.696;23.494;2023-07-02T00:09:12;53811.59;;;-139.68;100.00
10940;BME280;5522;42.696;23.494;2023-07-02T00:11:41;53843.75;;;-139.68;100.00
10940;BME280;5522;42.696;23.494;2023-07-02T00:14:09;53843.75;;;-139.68;100.00
10940;BME280;5522;42.696;23.494;2023-07-02T00:16:38;53851.81;;;-139.68;100.00
10940;BME280;5522;42.696;23.494;2023-07-02T00:19:05;53843.75;;;-139.68;100.00
10940;BME280;5522;42.696;23.494;2023-07-02T00:21:32;53855.81;;;-139.68;100.00
10940;BME280;5522;42.696;23.494;2023-07-02T00:23:59;53845.78;;;-139.68;100.00
10940;BME280;5522;42.696;23.494;2023-07-02T00:26:27;53859.84;;;-139.68;100.00
10940;BME280;5522;42.696;23.494;2023-07-02T00:28:56;53821.66;;;-139.68;100.00
10940;BME280;5522;42.696;23.494;2023-07-02T00:31:23;53839.75;;;-139.68;100.00
10940;BME280;5522;42.696;23.494;2023-07-02T00:33:50;53871.91;;;-139.68;100.00
10940;BME280;5522;42.696;23.494;2023-07-02T00:36:17;53867.88;;;-139.68;100.00
10940;BME280;5522;42.696;23.494;2023-07-02T00:38:45;53847.78;;;-139.68;100.00
10940;BME280;5522;42.696;23.494;2023-07-02T00:41:13;53851.81;;;-139.68;100.00
10940;BME280;5522;42.696;23.494;2023-07-02T00:43:40;53831.69;;;-139.68;100.00
10940;BME280;5522;42.696;23.494;2023-07-02T00:46:11;53849.78;;;-139.68;100.00
10940;BME280;5522;42.696;23.494;2023-07-02T00:48:43;53853.81;;;-139.68;100.00
10940;BME280;5522;42.696;23.494;2023-07-02T00:51:11;53821.66;;;-139.68;100.00
10940;BME280;5522;42.696;23.494;2023-07-02T00:53:40;53845.78;;;-139.68;100.00
10940;BME280;5522;42.696;23.494;2023-07-02T00:56:06;53855.81;;;-139.68;100.00
10940;BME280;5522;42.696;23.494;2023-07-02T00:58:36;53855.81;;;-139.68;100.00
10940;BME280;5522;42.696;23.494;2023-07-02T01:01:04;53855.81;;;-139.68;100.00
10940;BME280;5522;42.696;23.494;2023-07-02T01:03:32;53855.81;;;-139.68;100.00
10940;BME280;5522;42.696;23.494;2023-07-02T01:06:03;53831.69;;;-139.68;100.00
10940;BME280;5522;42.696;23.494;2023-07-02T01:08:29;53839.75;;;-139.68;100.00
10940;BME280;5522;42.696;23.494;2023-07-02T01:10:57;53839.75;;;-139.68;100.00
10940;BME280;5522;42.696;23.494;2023-07-02T01:13:25;53843.75;;;-139.68;100.00
10940;BME280;5522;42.696;23.494;2023-07-02T01:15:52;53833.72;;;-139.68;100.00
10940;BME280;5522;42.696;23.494;2023-07-02T01:18:19;53881.97;;;-139.68;100.00
10940;BME280;5522;42.696;23.494;2023-07-02T01:20:48;53859.84;;;-139.68;100.00
10940;BME280;5522;42.696;23.494;2023-07-02T01:23:15;53867.88;;;-139.68;100.00
10940;BME280;5522;42.696;23.494;2023-07-02T01:25:42;53910.09;;;-139.68;100.00
10940;BME280;5522;42.696;23.494;2023-07-02T01:28:10;53863.88;;;-139.68;100.00
10940;BME280;5522;42.696;23.494;2023-07-02T01:30:39;53871.91;;;-139.68;100.00
10940;BME280;5522;42.696;23.494;2023-07-02T01:33:06;53841.75;;;-139.68;100.00
10940;BME280;5522;42.696;23.494;2023-07-02T01:35:33;53867.88;;;-139.68;100.00
10940;BME280;5522;42.696;23.494;2023-07-02T01:38:01;53835.72;;;-139.68;100.00
10940;BME280;5522;42.696;23.494;2023-07-02T01:40:28;53873.91;;;-139.68;100.00
10940;BME280;5522;42.696;23.494;2023-07-02T01:42:54;53881.97;;;-139.68;100.00
10940;BME280;5522;42.696;23.494;2023-07-02T01:45:21;53843.75;;;-139.68;100.00
10940;BME280;5522;42.696;23.494;2023-07-02T01:47:48;53857.84;;;-139.68;100.00
10940;BME280;5522;42.696;23.494;2023-07-02T01:50:15;53855.81;;;-139.68;100.00
10940;BME280;5522;42.696;23.494;2023-07-02T01:52:42;53855.81;;;-139.68;100.00
10940;BME280;5522;42.696;23.494;2023-07-02T01:55:10;53879.94;;;-139.68;100.00
10940;BME280;5522;42.696;23.494;2023-07-02T01:57:37;53851.81;;;-139.68;100.00
10940;BME280;5522;42.696;23.494;2023-07-02T02:00:05;53829.69;;;-139.68;100.00
10940;BME280;5522;42.696;23.494;2023-07-02T02:02:32;53855.81;;;-139.68;100.00
10940;BME280;5522;42.696;23.494;2023-07-02T02:04:59;53867.88;;;-139.68;100.00
10940;BME280;5522;42.696;23.494;2023-07-02T02:07:26;53843.75;;;-139.68;100.00
10940;BME280;5522;42.696;23.494;2023-07-02T02:09:53;53857.84;;;-139.68;100.00
10940;BME280;5522;42.696;23.494;2023-07-02T02:12:21;53853.81;;;-139.68;100.00
10940;BME280;5522;42.696;23.494;2023-07-02T02:14:48;53849.78;;;-139.68;100.00
10940;BME280;5522;42.696;23.494;2023-07-02T02:17:15;53869.91;;;-139.68;100.00
10940;BME280;5522;42.696;23.494;2023-07-02T02:19:41;53861.84;;;-139.68;100.00
10940;BME280;5522;42.696;23.494;2023-07-02T02:22:08;53867.88;;;-139.68;100.00
10940;BME280;5522;42.696;23.494;2023-07-02T02:24:35;53871.91;;;-139.68;100.00
10940;BME280;5522;42.696;23.494;2023-07-02T02:27:02;53871.91;;;-139.68;100.00
10940;BME280;5522;42.696;23.494;2023-07-02T02:29:31;53847.78;;;-139.68;100.00
10940;BME280;5522;42.696;23.494;2023-07-02T02:31:58;53867.88;;;-139.68;100.00
10940;BME280;5522;42.696;23.494;2023-07-02T02:34:24;53875.94;;;-139.68;100.00
10940;BME280;5522;42.696;23.494;2023-07-02T02:36:51;53867.88;;;-139.68;100.00
10940;BME280;5522;42.696;23.494;2023-07-02T02:39:20;53857.84;;;-139.68;100.00
10940;BME280;5522;42.696;23.494;2023-07-02T02:41:47;53835.72;;;-139.68;100.00
10940;BME280;5522;42.696;23.494;2023-07-02T02:44:14;53829.69;;;-139.68;100.00
10940;BME280;5522;42.696;23.494;2023-07-02T02:46:42;53843.75;;;-139.68;100.00
10940;BME280;5522;42.696;23.494;2023-07-02T02:49:09;53871.91;;;-139.68;100.00
10940;BME280;5522;42.696;23.494;2023-07-02T02:51:36;53831.69;;;-139.68;100.00
10940;BME280;5522;42.696;23.494;2023-07-02T02:54:02;53833.72;;;-139.68;100.00
10940;BME280;5522;42.696;23.494;2023-07-02T02:56:29;53849.78;;;-139.68;100.00
10940;BME280;5522;42.696;23.494;2023-07-02T02:58:56;53837.72;;;-139.68;100.00
10940;BME280;5522;42.696;23.494;2023-07-02T03:01:23;53863.88;;;-139.68;100.00
10940;BME280;5522;42.696;23.494;2023-07-02T03:03:55;53829.69;;;-139.68;100.00
10940;BME280;5522;42.696;23.494;2023-07-02T03:06:22;53892.00;;;-139.68;100.00
10940;BME280;5522;42.696;23.494;2023-07-02T03:08:48;53839.75;;;-139.68;100.00
10940;BME280;5522;42.696;23.494;2023-07-02T03:11:15;53881.97;;;-139.68;100.00
10940;BME280;5522;42.696;23.494;2023-07-02T03:13:42;53881.97;;;-139.68;100.00
10940;BME280;5522;42.696;23.494;2023-07-02T03:16:09;53853.81;;;-139.68;100.00
10940;BME280;5522;42.696;23.494;2023-07-02T03:18:36;53857.84;;;-139.68;100.00
10940;BME280;5522;42.696;23.494;2023-07-02T03:21:04;53855.81;;;-139.68;100.00
10940;BME280;5522;42.696;23.494;2023-07-02T03:23:31;53855.81;;;-139.68;100.00
10940;BME280;5522;42.696;23.494;2023-07-02T03:25:58;53867.88;;;-139.68;100.00
10940;BME280;5522;42.696;23.494;2023-07-02T03:28:24;53823.66;;;-139.68;100.00
10940;BME280;5522;42.696;23.494;2023-07-02T03:30:51;53847.78;;;-139.68;100.00
10940;BME280;5522;42.696;23.494;2023-07-02T03:33:18;53865.88;;;-139.68;100.00
10940;BME280;5522;42.696;23.494;2023-07-02T03:35:45;53910.09;;;-139.68;100.00
10940;BME280;5522;42.696;23.494;2023-07-02T03:38:14;53883.97;;;-139.68;100.00
10940;BME280;5522;42.696;23.494;2023-07-02T03:40:41;53875.94;;;-139.68;100.00
10940;BME280;5522;42.696;23.494;2023-07-02T03:43:08;53803.56;;;-139.68;100.00
10940;BME280;5522;42.696;23.494;2023-07-02T03:45:35;53875.94;;;-139.68;100.00
10940;BME280;5522;42.696;23.494;2023-07-02T03:48:01;53829.69;;;-139.68;100.00
10940;BME280;5522;42.696;23.494;2023-07-02T03:50:28;53902.06;;;-139.68;100.00
10940;BME280;5522;42.696;23.494;2023-07-02T03:52:55;53863.88;;;-139.68;100.00
10940;BME280;5522;42.696;23.494;2023-07-02T03:55:24;53839.75;;;-139.68;100.00
10940;BME280;5522;42.696;23.494;2023-07-02T03:57:51;53837.72;;;-139.68;100.00
10940;BME280;5522;42.696;23.494;2023-07-02T04:00:18;53845.78;;;-139.68;100.00
10940;BME280;5522;42.696;23.494;2023-07-02T04:02:45;53845.78;;;-139.68;100.00
10940;BME280;5522;42.696;23.494;2023-07-02T04:05:12;53883.97;;;-139.68;100.00
10940;BME280;5522;42.696;23.494;2023-07-02T04:07:39;53831.69;;;-139.68;100.00
10940;BME280;5522;42.696;23.494;2023-07-02T04:10:07;53851.81;;;-139.68;100.00
10940;BME280;5522;42.696;23.494;2023-07-02T04:12:35;53859.84;;;-139.68;100.00
10940;BME280;5522;42.696;23.494;2023-07-02T04:15:02;53845.78;;;-139.68;100.00
10940;BME280;5522;42.696;23.494;2023-07-02T04:17:30;53843.75;;;-139.68;100.00
10940;BME280;5522;42.696;23.494;2023-07-02T04:19:59;53916.13;;;-139.68;100.00
10940;BME280;5522;42.696;23.494;2023-07-02T04:22:26;53829.69;;;-139.68;100.00
10940;BME280;5522;42.696;23.494;2023-07-02T04:24:53;53875.94;;;-139.68;100.00
10940;BME280;5522;42.696;23.494;2023-07-02T04:27:20;53910.09;;;-139.68;100.00
10940;BME280;5522;42.696;23.494;2023-07-02T04:29:49;53883.97;;;-139.68;100.00
10940;BME280;5522;42.696;23.494;2023-07-02T04:32:15;53906.06;;;-139.68;100.00
10940;BME280;5522;42.696;23.494;2023-07-02T04:34:42;53845.78;;;-139.68;100.00
10940;BME280;5522;42.696;23.494;2023-07-02T04:37:09;53906.06;;;-139.68;100.00
10940;BME280;5522;42.696;23.494;2023-07-02T04:39:36;53855.81;;;-139.68;100.00
10940;BME280;5522;42.696;23.494;2023-07-02T04:42:03;53861.84;;;-139.68;100.00
10940;BME280;5522;42.696;23.494;2023-07-02T04:44:30;53859.84;;;-139.68;100.00
10940;BME280;5522;42.696;23.494;2023-07-02T04:47:00;53869.91;;;-139.68;100.00
10940;BME280;5522;42.696;23.494;2023-07-02T04:49:27;53879.94;;;-139.68;100.00
10940;BME280;5522;42.696;23.494;2023-07-02T04:51:54;53892.00;;;-139.68;100.00
10940;BME280;5522;42.696;23.494;2023-07-02T04:54:21;53867.88;;;-139.68;100.00
10940;BME280;5522;42.696;23.494;2023-07-02T04:56:48;53879.94;;;-139.68;100.00
10940;BME280;5522;42.696;23.494;2023-07-02T04:59:16;53835.72;;;-139.68;100.00
10940;BME280;5522;42.696;23.494;2023-07-02T05:01:43;53851.81;;;-139.68;100.00
10940;BME280;5522;42.696;23.494;2023-07-02T05:04:11;53877.94;;;-139.68;100.00
10940;BME280;5522;42.696;23.494;2023-07-02T05:06:38;53871.91;;;-139.68;100.00
10940;BME280;5522;42.696;23.494;2023-07-02T05:09:05;53859.84;;;-139.68;100.00
10940;BME280;5522;42.696;23.494;2023-07-02T05:11:32;53835.72;;;-139.68;100.00
10940;BME280;5522;42.696;23.494;2023-07-02T05:13:58;53853.81;;;-139.68;100.00
10940;BME280;5522;42.696;23.494;2023-07-02T05:16:25;53896.03;;;-139.68;100.00
10940;BME280;5522;42.696;23.494;2023-07-02T05:18:52;53847.78;;;-139.68;100.00
10940;BME280;5522;42.696;23.494;2023-07-02T05:21:20;53867.88;;;-139.68;100.00
10940;BME280;5522;42.696;23.494;2023-07-02T05:23:47;53855.81;;;-139.68;100.00
10940;BME280;5522;42.696;23.494;2023-07-02T05:26:14;53867.88;;;-139.68;100.00
10940;BME280;5522;42.696;23.494;2023-07-02T05:28:41;53888.00;;;-139.68;100.00
10940;BME280;5522;42.696;23.494;2023-07-02T05:31:09;53883.97;;;-139.68;100.00
10940;BME280;5522;42.696;23.494;2023-07-02T05:33:36;53908.09;;;-139.68;100.00
10940;BME280;5522;42.696;23.494;2023-07-02T05:36:04;53900.06;;;-139.68;100.00
10940;BME280;5522;42.696;23.494;2023-07-02T05:38:33;53863.88;;;-139.68;100.00
10940;BME280;5522;42.696;23.494;2023-07-02T05:40:59;53851.81;;;-139.68;100.00
10940;BME280;5522;42.696;23.494;2023-07-02T05:43:26;53883.97;;;-139.68;100.00
10940;BME280;5522;42.696;23.494;2023-07-02T05:45:53;53902.06;;;-139.68;100.00
10940;BME280;5522;42.696;23.494;2023-07-02T05:48:20;53885.97;;;-139.68;100.00
10940;BME280;5522;42.696;23.494;2023-07-02T05:50:47;53863.88;;;-139.68;100.00
10940;BME280;5522;42.696;23.494;2023-07-02T05:53:14;53916.13;;;-139.68;100.00
10940;BME280;5522;42.696;23.494;2023-07-02T05:55:42;53863.88;;;-139.68;100.00
10940;BME280;5522;42.696;23.494;2023-07-02T05:58:09;53912.13;;;-139.68;100.00
10940;BME280;5522;42.696;23.494;2023-07-02T06:00:35;53879.94;;;-139.68;100.00
10940;BME280;5522;42.696;23.494;2023-07-02T06:03:02;53904.06;;;-139.68;100.00
10940;BME280;5522;42.696;23.494;2023-07-02T06:05:29;53896.03;;;-139.68;100.00
10940;BME280;5522;42.696;23.494;2023-07-02T06:07:56;53890.00;;;-139.68;100.00
10940;BME280;5522;42.696;23.494;2023-07-02T06:10:23;53940.25;;;-139.68;100.00
10940;BME280;5522;42.696;23.494;2023-07-02T06:12:51;53869.91;;;-139.68;100.00
10940;BME280;5522;42.696;23.494;2023-07-02T06:15:18;53896.03;;;-139.68;100.00
10940;BME280;5522;42.696;23.494;2023-07-02T06:17:45;53902.06;;;-139.68;100.00
10940;BME280;5522;42.696;23.494;2023-07-02T06:20:12;53861.84;;;-139.68;100.00
10940;BME280;5522;42.696;23.494;2023-07-02T06:22:39;53900.06;;;-139.68;100.00
10940;BME280;5522;42.696;23.494;2023-07-02T06:25:08;53859.84;;;-139.68;100.00
10940;BME280;5522;42.696;23.494;2023-07-02T06:27:34;53873.91;;;-139.68;100.00
10940;BME280;5522;42.696;23.494;2023-07-02T06:30:03;53910.09;;;-139.68;100.00
10940;BME280;5522;42.696;23.494;2023-07-02T06:32:31;53875.94;;;-139.68;95.51
10940;BME280;5522;42.696;23.494;2023-07-02T06:34:58;53918.16;;;-139.68;83.42
10940;BME280;5522;42.696;23.494;2023-07-02T06:37:25;53934.22;;;-139.68;74.71
10940;BME280;5522;42.696;23.494;2023-07-02T06:39:52;53910.09;;;-139.68;72.28
10940;BME280;5522;42.696;23.494;2023-07-02T06:42:19;53896.03;;;-139.68;74.63
10940;BME280;5522;42.696;23.494;2023-07-02T06:44:45;53875.94;;;-139.68;74.92
10940;BME280;5522;42.696;23.494;2023-07-02T06:47:14;53885.97;;;-139.68;77.34
10940;BME280;5522;42.696;23.494;2023-07-02T06:49:40;53883.97;;;-139.68;75.37
10940;BME280;5522;42.696;23.494;2023-07-02T06:52:07;53900.06;;;-139.68;74.12
10940;BME280;5522;42.696;23.494;2023-07-02T06:54:34;53960.38;;;-139.68;78.94
10940;BME280;5522;42.696;23.494;2023-07-02T06:57:01;53871.91;;;-139.68;76.79
10940;BME280;5522;42.696;23.494;2023-07-02T06:59:28;53934.22;;;-139.68;69.50
10940;BME280;5522;42.696;23.494;2023-07-02T07:01:55;53908.09;;;-139.68;70.64
10940;BME280;5522;42.696;23.494;2023-07-02T07:04:23;53908.09;;;-139.68;75.81
10940;BME280;5522;42.696;23.494;2023-07-02T07:06:50;53900.06;;;-139.68;70.35
10940;BME280;5522;42.696;23.494;2023-07-02T07:09:17;53912.13;;;-139.68;70.12
10940;BME280;5522;42.696;23.494;2023-07-02T07:11:44;53904.06;;;-139.68;70.51
10940;BME280;5522;42.696;23.494;2023-07-02T07:14:11;53912.13;;;-139.68;70.35
10940;BME280;5522;42.696;23.494;2023-07-02T07:16:38;53898.03;;;-139.68;75.70
10940;BME280;5522;42.696;23.494;2023-07-02T07:19:05;53920.16;;;-139.68;70.50
10940;BME280;5522;42.696;23.494;2023-07-02T07:21:34;53890.00;;;-139.68;75.87
10940;BME280;5522;42.696;23.494;2023-07-02T07:24:01;53952.31;;;-139.68;71.51
10940;BME280;5522;42.696;23.494;2023-07-02T07:26:28;53867.88;;;-139.68;67.39
10940;BME280;5522;42.696;23.494;2023-07-02T07:28:54;53888.00;;;-139.68;67.60
10940;BME280;5522;42.696;23.494;2023-07-02T07:31:23;53926.19;;;-139.68;62.59
10940;BME280;5522;42.696;23.494;2023-07-02T07:33:50;53898.03;;;-139.68;62.86
10940;BME280;5522;42.696;23.494;2023-07-02T07:36:17;53877.94;;;-139.68;64.54
10940;BME280;5522;42.696;23.494;2023-07-02T07:38:45;53916.13;;;-139.68;58.79
10940;BME280;5522;42.696;23.494;2023-07-02T07:41:12;53888.00;;;-139.68;57.76
10940;BME280;5522;42.696;23.494;2023-07-02T07:43:39;53898.03;;;-139.68;57.36
10940;BME280;5522;42.696;23.494;2023-07-02T07:46:06;53888.00;;;-139.68;60.87
10940;BME280;5522;42.696;23.494;2023-07-02T07:48:33;53892.00;;;-139.68;65.12
10940;BME280;5522;42.696;23.494;2023-07-02T07:51:00;53881.97;;;-139.68;65.26
10940;BME280;5522;42.696;23.494;2023-07-02T07:53:27;53877.94;;;-139.68;58.73
10940;BME280;5522;42.696;23.494;2023-07-02T07:55:55;53892.00;;;-139.68;49.53
10940;BME280;5522;42.696;23.494;2023-07-02T07:58:22;53877.94;;;-139.68;49.88
10940;BME280;5522;42.696;23.494;2023-07-02T08:00:49;53916.13;;;-139.68;39.13
10940;BME280;5522;42.696;23.494;2023-07-02T08:03:16;53871.91;;;-139.68;36.34
10940;BME280;5522;42.696;23.494;2023-07-02T08:05:43;53888.00;;;-139.68;35.54
10940;BME280;5522;42.696;23.494;2023-07-02T08:08:10;53924.16;;;-139.68;33.14
10940;BME280;5522;42.696;23.494;2023-07-02T08:10:36;53902.06;;;-139.68;33.92
10940;BME280;5522;42.696;23.494;2023-07-02T08:13:05;53892.00;;;-139.68;32.49
10940;BME280;5522;42.696;23.494;2023-07-02T08:15:31;53900.06;;;-139.68;32.30
10940;BME280;5522;42.696;23.494;2023-07-02T08:17:58;53952.31;;;-139.68;32.73
10940;BME280;5522;42.696;23.494;2023-07-02T08:20:25;53918.16;;;-139.68;34.94
10940;BME280;5522;42.696;23.494;2023-07-02T08:22:52;53940.25;;;-139.68;36.85
10940;BME280;5522;42.696;23.494;2023-07-02T08:25:19;53904.06;;;-139.68;34.18
10940;BME280;5522;42.696;23.494;2023-07-02T08:27:47;53936.22;;;-139.68;32.89
10940;BME280;5522;42.696;23.494;2023-07-02T08:30:15;53922.16;;;-139.68;33.20
10940;BME280;5522;42.696;23.494;2023-07-02T08:32:42;53938.25;;;-139.68;33.39
10940;BME280;5522;42.696;23.494;2023-07-02T08:35:09;53938.25;;;-139.68;31.75
10940;BME280;5522;42.696;23.494;2023-07-02T08:37:35;53930.22;;;-139.68;31.85
10940;BME280;5522;42.696;23.494;2023-07-02T08:40:03;53916.13;;;-139.68;33.06
10940;BME280;5522;42.696;23.494;2023-07-02T08:42:31;53926.19;;;-139.68;33.90
10940;BME280;5522;42.696;23.494;2023-07-02T08:44:59;53952.31;;;-139.68;36.68
10940;BME280;5522;42.696;23.494;2023-07-02T08:47:27;53972.41;;;-139.68;39.13
10940;BME280;5522;42.696;23.494;2023-07-02T08:49:54;53960.38;;;-139.68;40.02
10940;BME280;5522;42.696;23.494;2023-07-02T08:52:21;53932.22;;;-139.68;37.99
10940;BME280;5522;42.696;23.494;2023-07-02T08:54:48;53972.41;;;-139.68;38.19
10940;BME280;5522;42.696;23.494;2023-07-02T08:57:15;53924.16;;;-139.68;38.14
10940;BME280;5522;42.696;23.494;2023-07-02T08:59:41;53960.38;;;-139.68;39.19
10940;BME280;5522;42.696;23.494;2023-07-02T09:02:08;53942.25;;;-139.68;37.90
10940;BME280;5522;42.696;23.494;2023-07-02T09:04:36;53948.31;;;-139.68;39.14
10940;BME280;5522;42.696;23.494;2023-07-02T09:07:04;53948.31;;;-139.68;37.26
10940;BME280;5522;42.696;23.494;2023-07-02T09:09:31;53902.06;;;-139.68;38.05
10940;BME280;5522;42.696;23.494;2023-07-02T09:11:58;53946.28;;;-139.68;36.13
10940;BME280;5522;42.696;23.494;2023-07-02T09:14:26;53974.44;;;-139.68;35.42
10940;BME280;5522;42.696;23.494;2023-07-02T09:17:05;53914.13;;;-139.68;32.93
10940;BME280;5522;42.696;23.494;2023-07-02T09:19:32;53928.19;;;-139.68;32.83
10940;BME280;5522;42.696;23.494;2023-07-02T09:22:01;53898.03;;;-139.68;31.08
10940;BME280;5522;42.696;23.494;2023-07-02T09:24:30;53888.00;;;-139.68;31.17
10940;BME280;5522;42.696;23.494;2023-07-02T09:26:59;53879.94;;;-139.68;31.39
10940;BME280;5522;42.696;23.494;2023-07-02T09:29:26;53924.16;;;-139.68;29.07
10940;BME280;5522;42.696;23.494;2023-07-02T09:31:55;53885.97;;;-139.68;27.59
10940;BME280;5522;42.696;23.494;2023-07-02T09:34:27;53859.84;;;-139.68;28.20
10940;BME280;5522;42.696;23.494;2023-07-02T09:36:55;53914.13;;;-139.68;28.64
10940;BME280;5522;42.696;23.494;2023-07-02T09:39:26;53898.03;;;-139.68;27.93
10940;BME280;5522;42.696;23.494;2023-07-02T09:41:53;53908.09;;;-139.68;28.63
10940;BME280;5522;42.696;23.494;2023-07-02T09:44:21;53873.91;;;-139.68;29.22
10940;BME280;5522;42.696;23.494;2023-07-02T09:47:03;53922.16;;;-139.68;30.92
10940;BME280;5522;42.696;23.494;2023-07-02T09:49:32;53912.13;;;-139.68;28.70
10940;BME280;5522;42.696;23.494;2023-07-02T09:52:00;53920.16;;;-139.68;28.60
10940;BME280;5522;42.696;23.494;2023-07-02T09:54:29;53946.28;;;-139.68;30.51
10940;BME280;5522;42.696;23.494;2023-07-02T09:56:56;53956.34;;;-139.68;31.03
10940;BME280;5522;42.696;23.494;2023-07-02T09:59:24;53950.31;;;-139.68;31.16
10940;BME280;5522;42.696;23.494;2023-07-02T10:01:51;53968.41;;;-139.68;31.06
10940;BME280;5522;42.696;23.494;2023-07-02T10:04:19;53940.25;;;-139.68;31.27
10940;BME280;5522;42.696;23.494;2023-07-02T10:06:47;53996.53;;;-139.68;32.66
10940;BME280;5522;42.696;23.494;2023-07-02T10:09:14;53960.38;;;-139.68;33.46
10940;BME280;5522;42.696;23.494;2023-07-02T10:11:43;53948.31;;;-139.68;32.77
10940;BME280;5522;42.696;23.494;2023-07-02T10:14:10;53952.31;;;-139.68;34.00
10940;BME280;5522;42.696;23.494;2023-07-02T10:16:51;53932.22;;;-139.68;35.17
10940;BME280;5522;42.696;23.494;2023-07-02T10:19:18;53956.34;;;-139.68;33.34
10940;BME280;5522;42.696;23.494;2023-07-02T10:21:45;53960.38;;;-139.68;36.69
10940;BME280;5522;42.696;23.494;2023-07-02T10:24:16;53928.19;;;-139.68;34.93
10940;BME280;5522;42.696;23.494;2023-07-02T10:26:55;53956.34;;;-139.68;36.08
10940;BME280;5522;42.696;23.494;2023-07-02T10:29:22;53966.38;;;-139.68;35.66
10940;BME280;5522;42.696;23.494;2023-07-02T10:31:50;53926.19;;;-139.68;35.68
10940;BME280;5522;42.696;23.494;2023-07-02T10:34:28;53952.31;;;-139.68;37.90
10940;BME280;5522;42.696;23.494;2023-07-02T10:36:55;53944.28;;;-139.68;37.69
10940;BME280;5522;42.696;23.494;2023-07-02T10:39:23;53966.38;;;-139.68;36.12
10940;BME280;5522;42.696;23.494;2023-07-02T10:41:50;53918.16;;;-139.68;36.72
10940;BME280;5522;42.696;23.494;2023-07-02T10:44:18;53980.47;;;-139.68;36.06
10940;BME280;5522;42.696;23.494;2023-07-02T10:46:45;53942.25;;;-139.68;38.15
10940;BME280;5522;42.696;23.494;2023-07-02T10:49:13;53962.38;;;-139.68;39.17
10940;BME280;5522;42.696;23.494;2023-07-02T10:51:40;53924.16;;;-139.68;41.70
10940;BME280;5522;42.696;23.494;2023-07-02T10:54:07;53926.19;;;-139.68;41.18
10940;BME280;5522;42.696;23.494;2023-07-02T10:56:34;53956.34;;;-139.68;37.82
10940;BME280;5522;42.696;23.494;2023-07-02T10:59:01;53956.34;;;-139.68;38.80
10940;BME280;5522;42.696;23.494;2023-07-02T11:01:31;53972.41;;;-139.68;35.55
10940;BME280;5522;42.696;23.494;2023-07-02T11:04:00;53920.16;;;-139.68;38.76
10940;BME280;5522;42.696;23.494;2023-07-02T11:06:27;53948.31;;;-139.68;38.56
10940;BME280;5522;42.696;23.494;2023-07-02T11:08:54;53932.22;;;-139.68;40.00
10940;BME280;5522;42.696;23.494;2023-07-02T11:11:22;53944.28;;;-139.68;37.60
10940;BME280;5522;42.696;23.494;2023-07-02T11:13:50;53940.25;;;-139.68;34.36
10940;BME280;5522;42.696;23.494;2023-07-02T11:16:19;53946.28;;;-139.68;39.69
10940;BME280;5522;42.696;23.494;2023-07-02T11:18:49;53960.38;;;-139.68;38.21
10940;BME280;5522;42.696;23.494;2023-07-02T11:21:16;53952.31;;;-139.68;38.10
10940;BME280;5522;42.696;23.494;2023-07-02T11:23:43;53924.16;;;-139.68;39.11
10940;BME280;5522;42.696;23.494;2023-07-02T11:26:10;53908.09;;;-139.68;36.25
10940;BME280;5522;42.696;23.494;2023-07-02T11:28:48;53928.19;;;-139.68;35.30
10940;BME280;5522;42.696;23.494;2023-07-02T11:31:24;53916.13;;;-139.68;36.73
10940;BME280;5522;42.696;23.494;2023-07-02T11:33:52;53904.06;;;-139.68;37.22
10940;BME280;5522;42.696;23.494;2023-07-02T11:36:20;53960.38;;;-139.68;33.92
10940;BME280;5522;42.696;23.494;2023-07-02T11:38:48;53944.28;;;-139.68;35.45
10940;BME280;5522;42.696;23.494;2023-07-02T11:41:15;53912.13;;;-139.68;34.67
10940;BME280;5522;42.696;23.494;2023-07-02T11:43:42;53944.28;;;-139.68;34.49
10940;BME280;5522;42.696;23.494;2023-07-02T11:46:08;53940.25;;;-139.68;33.71
10940;BME280;5522;42.696;23.494;2023-07-02T11:48:35;53956.34;;;-139.68;36.55
10940;BME280;5522;42.696;23.494;2023-07-02T11:51:03;53908.09;;;-139.68;34.94
10940;BME280;5522;42.696;23.494;2023-07-02T11:53:30;53958.34;;;-139.68;35.95
10940;BME280;5522;42.696;23.494;2023-07-02T11:55:57;53922.16;;;-139.68;38.81
10940;BME280;5522;42.696;23.494;2023-07-02T11:58:24;53956.34;;;-139.68;38.19
10940;BME280;5522;42.696;23.494;2023-07-02T12:00:51;53952.31;;;-139.68;40.53
10940;BME280;5522;42.696;23.494;2023-07-02T12:03:18;53950.31;;;-139.68;42.12
10940;BME280;5522;42.696;23.494;2023-07-02T12:05:45;53910.09;;;-139.68;41.31
10940;BME280;5522;42.696;23.494;2023-07-02T12:08:13;53988.50;;;-139.68;43.49
10940;BME280;5522;42.696;23.494;2023-07-02T12:10:40;53928.19;;;-139.68;43.88
10940;BME280;5522;42.696;23.494;2023-07-02T12:13:07;53944.28;;;-139.68;45.61
10940;BME280;5522;42.696;23.494;2023-07-02T12:15:34;53962.38;;;-139.68;46.87
10940;BME280;5522;42.696;23.494;2023-07-02T12:18:01;53960.38;;;-139.68;47.46
10940;BME280;5522;42.696;23.494;2023-07-02T12:20:28;53932.22;;;-139.68;51.97
10940;BME280;5522;42.696;23.494;2023-07-02T12:22:54;53970.41;;;-139.68;56.58
10940;BME280;5522;42.696;23.494;2023-07-02T12:25:23;53948.31;;;-139.68;60.04
10940;BME280;5522;42.696;23.494;2023-07-02T12:27:50;53916.13;;;-139.68;62.33
10940;BME280;5522;42.696;23.494;2023-07-02T12:30:16;53992.53;;;-139.68;68.05
10940;BME280;5522;42.696;23.494;2023-07-02T12:32:44;53960.38;;;-139.68;68.30
10940;BME280;5522;42.696;23.494;2023-07-02T12:35:11;53944.28;;;-139.68;65.43
10940;BME280;5522;42.696;23.494;2023-07-02T12:37:43;53920.16;;;-139.68;60.09